METAR Data
IDs: Format: Raw Decoded Include TAF

Data at: 0944 UTC 10 Dec 2022

KERV 100935Z AUTO 19010KT 10SM OVC014 20/17 A3005 RMK AO2 T01950173
KERV 100915Z AUTO 17011G17KT 10SM OVC012 20/17 A3005 RMK AO2 T01950173
KERV 100855Z AUTO 18011G15KT 10SM OVC012 20/18 A3005 RMK AO2 T01950175
KERV 100835Z AUTO 17014G21KT 10SM OVC012 20/18 A3005 RMK AO2 T01970176
KERV 100815Z AUTO 17014G18KT 10SM OVC009 20/18 A3004 RMK AO2 T01970181
KERV 100755Z AUTO 16013KT 7SM OVC007 20/19 A3004 RMK AO2 T01960185
KERV 100735Z AUTO 16010G19KT 7SM OVC007 20/19 A3005 RMK AO2 T01960185
KERV 100715Z AUTO 16012KT 7SM OVC007 20/19 A3005 RMK AO2 T01950185
KERV 100655Z AUTO 16015KT 7SM OVC007 20/19 A3005 RMK AO2 T01960185
KERV 100635Z AUTO 17015G21KT 7SM OVC007 20/19 A3005 RMK AO2 T01970185
KERV 100615Z AUTO 16014G21KT 7SM OVC009 20/19 A3006 RMK AO2 T01970185
KERV 100555Z AUTO 16014KT 7SM OVC009 20/18 A3006 RMK AO2 T01980183 10200 20171 402380171
No TAF found for KERV

KLUD 100935Z AUTO 18006KT 1/2SM FG OVC001 17/17 A3003 RMK AO2 T01700165
KLUD 100920Z AUTO 18007KT 1/4SM FG OVC001 17/16 A3003 RMK AO2 T01670162
KLUD 100855Z AUTO 18008KT M1/4SM FG OVC001 17/16 A3004 RMK AO2 T01660161
KLUD 100835Z AUTO 18006KT M1/4SM FG OVC001 17/16 A3004 RMK AO2 T01650160
KLUD 100815Z AUTO 19007KT 1/4SM FG OVC001 17/16 A3004 RMK AO2 T01650160
KLUD 100800Z AUTO 16007KT 1/4SM FG OVC001 17/16 A3003 RMK AO2 T01650160
KLUD 100735Z AUTO 16008KT M1/4SM FG OVC001 17/16 A3003 RMK AO2 T01650160
KLUD 100715Z AUTO 16008KT M1/4SM FG OVC001 17/16 A3004 RMK AO2 T01650160
KLUD 100655Z AUTO 16008KT M1/4SM FG OVC001 16/16 A3005 RMK AO2 T01630158
KLUD 100635Z AUTO 16007KT M1/4SM FG OVC001 16/16 A3005 RMK AO2 T01630158
KLUD 100615Z AUTO 15007KT M1/4SM FG OVC001 16/16 A3005 RMK AO2 T01620157
KLUD 100555Z AUTO 15007KT M1/4SM FG OVC001 16/16 A3005 RMK AO2 T01610156 10170 20158 401910110
No TAF found for KLUD

KBVO 100936Z AUTO 00000KT 2SM +RA BR SCT027 BKN033 OVC040 06/06 A3008 RMK AO2 LTG DSNT SE-SW P0010 T00610061
KBVO 100915Z AUTO 07006KT 5SM -RA BR SCT006 SCT016 OVC034 06/06 A3008 RMK AO2 P0001 T00610061
KBVO 100904Z AUTO 05007KT 4SM -RA BR BKN006 BKN013 OVC032 06/06 A3009 RMK AO2 PRESFR P0000 T00610056
KBVO 100853Z AUTO 35004KT 2SM RA BR OVC006 06/06 A3012 RMK AO2 SLP196 P0008 60034 T00610061 53013
KBVO 100843Z AUTO VRB03KT 3SM -RA BR BKN006 OVC020 06/06 A3012 RMK AO2 PRESRR P0005 T00610061
KBVO 100836Z AUTO 34004KT 4SM -RA BR BKN005 OVC020 06/06 A3010 RMK AO2 P0004 T00610061
KBVO 100817Z AUTO 03005KT 3SM -RA BR FEW005 BKN021 OVC029 06/06 A3008 RMK AO2 P0002 T00610061
KBVO 100753Z AUTO 03007KT 4SM -RA BR BKN023 OVC034 06/06 A3008 RMK AO2 LTG DSNT NW SLP183 P0006 T00610061
KBVO 100751Z AUTO 03008KT 3SM -RA BR BKN023 OVC034 06/06 A3008 RMK AO2 LTG DSNT NW P0006
KBVO 100742Z AUTO 02009KT 4SM RA BR SCT023 BKN032 OVC055 06/06 A3009 RMK AO2 LTG DSNT NW P0005 T00610061
KBVO 100709Z AUTO 36005KT 5SM -RA BR BKN027 OVC042 06/06 A3010 RMK AO2 LTG DSNT SE P0002 T00610061
KBVO 100653Z AUTO 02006KT 5SM -RA BR FEW032 OVC041 06/06 A3010 RMK AO2 LTG DSNT S SLP189 P0020 T00610061
KBVO 100645Z AUTO 01005KT 4SM -RA BR BKN034 OVC045 06/06 A3010 RMK AO2 LTG DSNT S P0020 T00610061
KBVO 100634Z AUTO 01004KT 2SM RA BR SCT036 BKN043 OVC080 06/06 A3011 RMK AO2 P0019 T00610061
KBVO 100618Z AUTO 00000KT 3SM -RA BR BKN042 BKN050 OVC070 06/06 A3011 RMK AO2 P0013 T00610061
KBVO 100553Z AUTO 00000KT 1 3/4SM +RA BR BKN049 BKN065 OVC090 06/06 A3012 RMK AO2 LTG DSNT SW RAB10 SLP197 P0015 60016 T00610061 10072 20039 401111017 58003
KBVO 100546Z AUTO 00000KT 2SM +RA BR BKN055 BKN075 OVC095 06/06 A3012 RMK AO2 LTG DSNT SW RAB10 P0010 T00610061

KBVO 100520Z 1006/1106 00000KT P6SM -RA VCTS BKN060CB OVC100
  FM100900 00000KT 3SM SHRA VCTS OVC005CB
  FM101400 VRB04KT 3SM BR OVC007
  FM101600 VRB04KT 5SM BR BKN010
  FM101800 02005KT P6SM BKN015
  FM110000 02005KT P6SM BKN025


KMKC 100854Z 14005KT 9SM OVC013 03/00 A3017 RMK AO2 SLP220 T00280000 50001
KMKC 100754Z 16003KT 9SM OVC013 03/00 A3018 RMK AO2 SLP224 T00280000
KMKC 100654Z 09003KT 9SM OVC013 03/00 A3016 RMK AO2 SLP217 T00280000
KMKC 100554Z 13005KT 10SM OVC014 03/00 A3016 RMK AO2 SLP219 T00280000 10028 20022 400940006 56001

KMKC 100520Z 1006/1106 13005KT P6SM OVC013
  FM100830 16005KT 5SM BR OVC007
  FM101500 21005KT P6SM BKN012
  FM102000 30008KT P6SM BKN015


KCWI 100856Z AUTO 11007KT 2 1/2SM UP OVC004 02/ A3020 RMK AO2 UPB14 SLP237 P0000 60000 T0022 55001 FZRANO
KCWI 100842Z AUTO 10005KT 1 3/4SM UP OVC004 02/ A3020 RMK AO2 UPB14 P0000 FZRANO
KCWI 100756Z AUTO 09007KT 2SM BR OVC004 02/ A3020 RMK AO2 SLP236 T0022 FZRANO
KCWI 100656Z AUTO 09006KT 2 1/2SM BR OVC004 02/ A3021 RMK AO2 SLP240 T0022 FZRANO
KCWI 100652Z AUTO 09006KT 2 1/2SM BR OVC004 02/ A3021 RMK AO2 FZRANO
KCWI 100616Z AUTO 08006KT 3SM BR OVC004 02/ A3021 RMK AO2 FZRANO
KCWI 100556Z AUTO 08006KT 2 1/2SM BR OVC004 02/ A3020 RMK AO2 SLPNO 60000 T0022 10022 20017 400280000 51002 FZRANO
KCWI 100547Z AUTO 08008KT 2 1/2SM BR OVC004 02/ A3020 RMK AO2 400280000 FZRANO
No TAF found for KCWI

KOSH 100924Z AUTO 08005KT 4SM BR FEW003 SCT013 OVC048 00/M01 A3026 RMK AO2 SNE08 P0000 T00001011
KOSH 100914Z AUTO 08007KT 3SM BR SCT003 BKN015 OVC048 00/M01 A3026 RMK AO2 SNE08 P0000 T00001011
KOSH 100856Z AUTO 07007KT 2SM -SN BR SCT003 BKN013 OVC018 00/M01 A3027 RMK AO2 P0000 T00001011
KOSH 100853Z AUTO 07007KT 1 3/4SM -SN BR FEW005 OVC015 00/M01 A3027 RMK AO2 SNB10 SLP263 P0000 60000 T00001011 58004
KOSH 100816Z AUTO 07006KT 1 3/4SM -SN BR OVC012 01/M01 A3028 RMK AO2 SNB10 P0000 T00061011
KOSH 100753Z AUTO 07006KT 6SM BR OVC013 01/M01 A3028 RMK AO2 SNE27 SLP266 P0000 T00061011
KOSH 100653Z AUTO 10006KT 5SM -SN BR OVC012 01/M02 A3028 RMK AO2 SNB26E43B53 SLP269 P0000 T00061017
KOSH 100645Z AUTO 10006KT 5SM BR OVC012 01/M02 A3028 RMK AO2 SNB26E43 P0000 T00061017
KOSH 100637Z AUTO 10005KT 2 1/2SM -SN BR OVC011 01/M02 A3028 RMK AO2 SNB26 P0000 T00061017
KOSH 100553Z AUTO 08006KT 9SM OVC012 01/M02 A3028 RMK AO2 SLP266 T00061022 10006 20000 400111011 56005
No TAF found for KOSH